Time;durP1;ratioP1;P1;durP2;ratioP2;P2;SDS_P1;SDS_P2;PMS_P1;PMS_P2;Temp;Humidity;BMP_temperature;BMP_pressure;BME280_temperature;BME280_humidity;BME280_pressure;Samples;Min_cycle;Max_cycle;Signal;HPM_P1;HPM_P2
2022/05/25 00:00:16;;;;;;;1.23;0.80;;;;;;;21.12;50.89;101064.22;4915122;29;20103;-84
2022/05/25 00:02:44;;;;;;;1.45;0.73;;;;;;;21.12;49.60;101064.22;4914867;29;20067;-84
2022/05/25 00:05:15;;;;;;;2.05;1.10;;;;;;;21.14;48.67;101077.34;4915380;29;20791;-84
2022/05/25 00:07:43;;;;;;;4.85;0.95;;;;;;;21.12;49.48;101077.38;4910415;29;20115;-85
2022/05/25 00:10:13;;;;;;;0.60;0.55;;;;;;;21.04;49.27;101067.81;4880481;29;20518;-84
2022/05/25 00:12:43;;;;;;;1.42;0.82;;;;;;;20.96;49.60;101067.88;4877489;29;20052;-82
2022/05/25 00:15:14;;;;;;;2.30;1.00;;;;;;;20.90;49.78;101054.78;4877566;29;20121;-84
2022/05/25 00:17:42;;;;;;;1.95;1.20;;;;;;;20.85;50.49;101061.84;4877337;29;20109;-81
2022/05/25 00:20:11;;;;;;;2.50;1.38;;;;;;;20.81;49.13;101066.25;4889762;29;20056;-84
2022/05/25 00:22:46;;;;;;;2.83;1.10;;;;;;;20.79;47.14;101059.25;4910108;29;20052;-84
2022/05/25 00:25:16;;;;;;;1.65;0.75;;;;;;;20.75;47.89;101066.28;4899865;28;20147;-83
2022/05/25 00:27:47;;;;;;;2.17;0.82;;;;;;;20.76;49.64;101069.81;4899102;29;20059;-83
2022/05/25 00:30:17;;;;;;;3.72;0.80;;;;;;;20.75;49.24;101063.66;4909855;29;20057;-84
2022/05/25 00:32:45;;;;;;;0.93;0.70;;;;;;;20.76;48.94;101060.16;4902955;29;20048;-85
2022/05/25 00:35:16;;;;;;;3.28;1.00;;;;;;;20.78;46.34;101049.63;4898614;29;20056;-84
2022/05/25 00:37:46;;;;;;;0.95;0.70;;;;;;;20.75;47.13;101041.75;4897508;29;20080;-87
2022/05/25 00:40:17;;;;;;;1.23;0.80;;;;;;;20.77;46.13;101038.22;4896215;29;20052;-82
2022/05/25 00:42:48;;;;;;;2.20;0.85;;;;;;;20.75;46.29;101037.34;4895615;29;20076;-87
2022/05/25 00:45:17;;;;;;;1.35;0.77;;;;;;;20.72;46.03;101029.50;4897484;29;20080;-88
2022/05/25 00:47:49;;;;;;;2.97;1.08;;;;;;;20.67;45.03;101026.91;4895490;29;20056;-84
2022/05/25 00:50:18;;;;;;;;;;;;;;;20.65;45.78;101019.91;4905072;29;20438;-81
2022/05/25 00:52:49;;;;;;;2.03;1.30;;;;;;;20.60;45.30;101025.22;4914463;29;19923;-79
2022/05/25 00:55:26;;;;;;;1.20;0.77;;;;;;;20.61;45.26;101024.31;4914996;29;20056;-81
2022/05/25 00:57:59;;;;;;;2.88;1.23;;;;;;;20.62;46.12;101026.06;4914838;29;20087;-80
2022/05/25 01:00:30;;;;;;;2.90;1.00;;;;;;;20.64;45.26;101029.56;4914766;29;20071;-81
2022/05/25 01:03:04;;;;;;;3.40;0.88;;;;;;;20.64;44.70;101032.19;4917257;29;20063;-79
2022/05/25 01:05:36;;;;;;;1.23;0.70;;;;;;;20.57;43.99;101022.63;4917342;29;20053;-81
2022/05/25 01:08:15;;;;;;;1.98;1.02;;;;;;;20.55;44.86;101029.59;4921442;29;20478;-82
2022/05/25 01:10:54;;;;;;;3.90;0.88;;;;;;;20.49;43.57;101020.00;4926942;29;20111;-83
2022/05/25 01:13:33;;;;;;;7.53;0.70;;;;;;;20.47;44.26;101008.59;4918188;29;20064;-84
2022/05/25 01:16:13;;;;;;;1.40;0.70;;;;;;;20.41;44.86;100999.91;4915455;29;20067;-82
2022/05/25 01:18:49;;;;;;;1.38;0.88;;;;;;;20.43;45.32;101014.78;4913891;29;20731;-80
2022/05/25 01:21:25;;;;;;;1.85;1.02;;;;;;;20.41;45.08;101020.91;4904610;29;20036;-81
2022/05/25 01:24:27;;;;;;;1.77;0.90;;;;;;;20.40;44.19;101016.56;4906552;28;20053;-84
2022/05/25 01:27:30;;;;;;;1.27;0.80;;;;;;;20.41;47.99;101023.53;4897104;29;20056;-83
2022/05/25 01:30:12;;;;;;;1.88;0.75;;;;;;;20.36;47.27;101017.47;4893137;29;20583;-86
2022/05/25 01:33:03;;;;;;;2.58;0.82;;;;;;;20.32;46.92;101020.97;4900851;29;20070;-85
2022/05/25 01:35:39;;;;;;;2.08;0.82;;;;;;;20.28;47.14;101021.00;4899742;29;20053;-90
2022/05/25 01:38:20;;;;;;;0.90;0.60;;;;;;;20.24;45.77;101019.28;4901234;29;20049;-86
2022/05/25 01:40:53;;;;;;;2.85;0.82;;;;;;;20.23;46.59;101017.53;4898805;29;20055;-85
2022/05/25 01:43:24;;;;;;;2.03;0.70;;;;;;;20.18;45.41;101014.09;4900922;29;20052;-85
2022/05/25 01:46:00;;;;;;;0.93;0.80;;;;;;;20.15;46.44;101016.72;4899294;29;20053;-86
2022/05/25 01:48:29;;;;;;;3.63;1.00;;;;;;;20.13;46.03;101020.22;4898559;29;20048;-86
2022/05/25 01:51:03;;;;;;;0.82;0.80;;;;;;;20.08;45.07;101015.00;4913668;29;20048;-86
2022/05/25 01:53:35;;;;;;;3.33;1.00;;;;;;;20.06;45.56;101015.00;4916910;29;20514;-86
2022/05/25 01:56:07;;;;;;;2.72;0.88;;;;;;;20.05;47.24;101012.41;4918362;29;20048;-85
2022/05/25 01:58:38;;;;;;;2.08;0.80;;;;;;;19.99;47.84;101007.16;4918455;29;20463;-87
2022/05/25 02:01:10;;;;;;;2.08;1.20;;;;;;;19.94;47.82;101011.59;4917829;29;20061;-87
2022/05/25 02:06:55;;;;;;;3.15;0.90;;;;;;;19.82;47.44;101021.25;4917257;29;20139;-85
2022/05/25 02:09:40;;;;;;;1.65;0.95;;;;;;;19.78;52.02;101016.03;4917350;29;20052;-86
2022/05/25 02:12:20;;;;;;;2.38;1.00;;;;;;;19.68;50.67;101017.78;4916524;29;20115;-86
2022/05/25 02:14:58;;;;;;;1.10;0.90;;;;;;;19.56;52.15;101012.56;4916976;29;20487;-86
2022/05/25 02:17:34;;;;;;;4.40;1.10;;;;;;;19.48;52.92;101015.22;4917273;29;20098;-86
2022/05/25 02:20:09;;;;;;;1.67;0.98;;;;;;;19.43;52.47;101020.50;4905721;29;20503;-85
2022/05/25 02:22:42;;;;;;;2.13;1.10;;;;;;;19.38;51.99;101024.03;4910849;29;20057;-86
2022/05/25 02:25:16;;;;;;;2.30;1.02;;;;;;;19.25;53.83;101017.91;4899859;28;20116;-86
2022/05/25 02:27:49;;;;;;;3.30;1.58;;;;;;;19.13;52.81;101025.81;4897355;29;20080;-83
2022/05/25 02:30:20;;;;;;;1.23;0.93;;;;;;;19.10;53.99;101033.66;4896761;29;20057;-85
2022/05/25 02:32:56;;;;;;;2.05;1.05;;;;;;;19.01;52.87;101027.56;4898588;29;20057;-89
2022/05/25 02:35:26;;;;;;;1.90;0.90;;;;;;;18.95;53.26;101009.22;4899052;29;20056;-87
2022/05/25 02:37:59;;;;;;;2.22;0.90;;;;;;;18.90;52.91;101021.47;4898887;29;20120;-90
2022/05/25 02:40:37;;;;;;;2.63;1.10;;;;;;;18.88;52.96;101027.59;4901511;29;20112;-87
2022/05/25 02:43:06;;;;;;;1.33;0.98;;;;;;;18.84;53.11;101022.31;4897887;29;20519;-83
2022/05/25 02:45:35;;;;;;;2.88;1.13;;;;;;;18.76;53.34;101028.41;4897393;29;20134;-83
2022/05/25 02:48:06;;;;;;;1.42;1.02;;;;;;;18.68;52.91;101019.69;4897107;29;20054;-81
2022/05/25 02:50:34;;;;;;;2.00;0.80;;;;;;;18.60;53.28;101020.56;4911355;29;20059;-82
2022/05/25 02:53:04;;;;;;;2.03;1.20;;;;;;;18.55;53.51;101026.66;4916858;29;20048;-83
2022/05/25 02:55:32;;;;;;;2.35;1.00;;;;;;;18.49;53.42;101030.16;4916709;29;20048;-81
2022/05/25 02:58:02;;;;;;;1.60;0.90;;;;;;;18.45;54.19;101031.00;4916338;29;20078;-82
2022/05/25 03:00:31;;;;;;;1.20;0.95;;;;;;;18.39;54.02;101024.03;4916455;29;20066;-85
2022/05/25 03:03:05;;;;;;;3.28;0.90;;;;;;;18.28;53.33;101009.13;4916758;29;20048;-83
2022/05/25 03:05:33;;;;;;;2.03;1.08;;;;;;;18.30;53.67;101013.53;4916191;29;20062;-83
2022/05/25 03:08:02;;;;;;;1.75;1.17;;;;;;;18.26;53.97;101005.66;4916233;29;20143;-82
2022/05/25 03:10:30;;;;;;;1.38;1.00;;;;;;;18.23;54.14;101016.13;4916319;29;20064;-84
2022/05/25 03:12:59;;;;;;;1.42;1.00;;;;;;;18.21;53.76;101019.63;4915140;29;20083;-79
2022/05/25 03:15:28;;;;;;;1.88;1.05;;;;;;;18.20;54.71;101022.22;4915646;29;20052;-81
2022/05/25 03:17:56;;;;;;;2.92;1.05;;;;;;;18.15;54.46;101013.50;4915350;29;20556;-81
2022/05/25 03:20:27;;;;;;;1.85;1.00;;;;;;;18.08;56.43;101009.13;4912505;29;20084;-84
2022/05/25 03:22:55;;;;;;;1.98;1.02;;;;;;;17.98;56.46;101006.47;4908636;29;20128;-83
2022/05/25 03:25:23;;;;;;;2.03;1.00;;;;;;;17.88;56.64;101014.28;4898487;28;20068;-84
2022/05/25 03:27:52;;;;;;;1.60;1.10;;;;;;;17.82;56.34;101014.25;4896046;29;20059;-84
2022/05/25 03:30:21;;;;;;;3.20;1.20;;;;;;;17.80;56.38;101014.22;4896033;29;20495;-82
2022/05/25 03:32:50;;;;;;;1.40;1.13;;;;;;;17.75;55.91;101008.06;4895313;29;20076;-83
2022/05/25 03:35:19;;;;;;;1.70;1.00;;;;;;;17.70;55.30;101005.44;4895732;29;20488;-82
2022/05/25 03:37:49;;;;;;;2.35;1.20;;;;;;;17.69;54.85;101003.69;4896373;29;20152;-82
2022/05/25 03:40:17;;;;;;;1.45;0.85;;;;;;;17.69;55.08;101006.31;4896932;29;20675;-82
2022/05/25 03:42:47;;;;;;;2.40;1.10;;;;;;;17.70;55.21;101004.56;4896562;29;20048;-83
2022/05/25 03:45:17;;;;;;;1.88;0.90;;;;;;;17.68;54.98;101001.94;4900685;29;20052;-82
2022/05/25 03:47:45;;;;;;;1.35;1.10;;;;;;;17.65;55.50;101006.31;4897671;29;20500;-85
2022/05/25 03:50:14;;;;;;;1.63;0.90;;;;;;;17.62;54.85;101001.06;4904933;29;20048;-85
2022/05/25 03:52:42;;;;;;;1.30;0.95;;;;;;;17.58;55.40;100995.78;4915102;29;20052;-79
2022/05/25 03:55:13;;;;;;;0.88;0.82;;;;;;;17.53;54.92;101001.91;4915231;29;20131;-81
2022/05/25 03:57:41;;;;;;;1.70;0.88;;;;;;;17.49;55.36;101000.13;4916155;29;20044;-81
2022/05/25 04:00:11;;;;;;;2.00;1.00;;;;;;;17.47;55.11;100991.38;4927202;29;20048;-83
2022/05/25 04:02:39;;;;;;;3.40;1.20;;;;;;;17.45;54.67;101003.59;4934173;29;20040;-81
2022/05/25 04:05:12;;;;;;;4.07;0.98;;;;;;;17.42;55.55;100999.22;4918893;29;20048;-83
2022/05/25 04:07:43;;;;;;;3.17;1.05;;;;;;;17.41;55.67;100994.88;4915598;29;20064;-84
2022/05/25 04:10:15;;;;;;;4.40;0.95;;;;;;;17.41;56.07;101001.81;4914610;29;20052;-82
2022/05/25 04:12:45;;;;;;;2.05;1.02;;;;;;;17.40;55.51;101002.69;4914505;29;21081;-81
2022/05/25 04:15:15;;;;;;;2.17;1.23;;;;;;;17.40;55.98;101000.06;4913825;29;20563;-78
2022/05/25 04:17:43;;;;;;;1.00;0.70;;;;;;;17.37;56.64;100999.19;4913985;29;20132;-79
2022/05/25 04:20:14;;;;;;;1.95;1.02;;;;;;;17.34;56.36;100995.66;4911106;29;20649;-81
2022/05/25 04:22:42;;;;;;;4.20;0.90;;;;;;;17.30;56.36;101005.25;4908538;29;20131;-83
2022/05/25 04:25:15;;;;;;;2.45;1.00;;;;;;;17.28;55.95;101006.97;4897227;28;20060;-80
2022/05/25 04:27:46;;;;;;;2.60;1.05;;;;;;;17.30;57.36;101014.84;4894806;29;20498;-84
2022/05/25 04:30:18;;;;;;;1.40;1.10;;;;;;;17.30;57.58;101005.25;4895419;29;20060;-85
2022/05/25 04:32:46;;;;;;;;;;;;;;;17.30;57.42;101015.72;4896343;29;20558;-85
2022/05/25 04:35:16;;;;;;;1.35;0.73;;;;;;;17.31;58.34;101014.84;4893659;29;19931;-87
2022/05/25 04:37:52;;;;;;;2.30;1.00;;;;;;;17.30;58.36;101014.84;4897386;29;20100;-85
2022/05/25 04:40:25;;;;;;;5.20;1.10;;;;;;;17.29;58.14;101013.94;4880918;29;20061;-84
2022/05/25 04:42:55;;;;;;;2.00;0.90;;;;;;;17.30;58.14;101020.94;4876129;29;20105;-81
2022/05/25 04:45:25;;;;;;;1.58;1.08;;;;;;;17.30;59.26;101015.72;4876614;29;20113;-83
2022/05/25 04:47:54;;;;;;;1.45;0.90;;;;;;;17.30;58.90;101014.84;4876393;29;20140;-85
2022/05/25 04:50:24;;;;;;;1.75;1.02;;;;;;;17.29;58.51;101008.72;4893788;29;20134;-82
2022/05/25 04:52:54;;;;;;;1.65;0.85;;;;;;;17.28;58.29;101008.72;4913407;29;20094;-85
2022/05/25 04:58:19;;;;;;;1.77;1.00;;;;;;;17.29;58.07;101015.69;4907613;29;20059;-85
2022/05/25 05:00:48;;;;;;;5.20;1.13;;;;;;;17.29;59.70;101024.41;4898720;29;20049;-84
2022/05/25 05:03:17;;;;;;;3.33;1.02;;;;;;;17.29;60.56;101019.19;4898205;29;20084;-85
2022/05/25 05:05:46;;;;;;;2.15;1.10;;;;;;;17.24;60.19;101015.66;4898136;29;20219;-83
2022/05/25 05:08:15;;;;;;;2.20;1.20;;;;;;;17.28;59.71;101020.06;4898533;29;20690;-85
2022/05/25 05:10:45;;;;;;;1.85;1.05;;;;;;;17.24;60.06;101013.06;4898405;29;20094;-86
2022/05/25 05:13:13;;;;;;;3.35;1.10;;;;;;;17.28;60.53;101025.28;4899048;29;20128;-83
2022/05/25 05:15:44;;;;;;;4.43;1.33;;;;;;;17.27;59.79;101020.03;4916730;29;20052;-81
2022/05/25 05:18:13;;;;;;;2.60;1.13;;;;;;;17.26;60.46;101029.63;4917468;29;20056;-85
2022/05/25 05:20:42;;;;;;;2.88;1.15;;;;;;;17.25;60.71;101027.91;4912826;29;20116;-87
2022/05/25 05:23:10;;;;;;;1.50;1.10;;;;;;;17.24;60.42;101031.34;4910116;29;20312;-85
2022/05/25 05:25:39;;;;;;;2.03;1.17;;;;;;;17.23;59.51;101027.00;4900723;28;20079;-87
2022/05/25 05:28:13;;;;;;;2.08;1.35;;;;;;;17.22;60.44;101021.75;4898341;29;20496;-88
2022/05/25 05:30:52;;;;;;;1.98;1.05;;;;;;;17.18;60.47;101036.56;4898191;29;20340;-88
2022/05/25 05:33:20;;;;;;;1.90;1.02;;;;;;;17.15;61.06;101033.91;4900154;29;20065;-87
2022/05/25 05:35:54;;;;;;;2.58;1.20;;;;;;;17.09;61.43;101032.16;4897824;29;20075;-89
2022/05/25 05:38:23;;;;;;;1.65;1.17;;;;;;;17.07;61.56;101028.63;4897590;29;20740;-87
2022/05/25 05:40:52;;;;;;;2.00;1.30;;;;;;;17.07;61.08;101033.88;4897853;29;20076;-88
2022/05/25 05:43:23;;;;;;;3.50;1.27;;;;;;;17.07;61.29;101022.53;4897282;29;20499;-87
2022/05/25 05:45:53;;;;;;;3.95;1.30;;;;;;;17.08;61.45;101024.28;4897420;29;20131;-88
2022/05/25 05:48:23;;;;;;;2.67;0.95;;;;;;;17.01;61.79;101015.50;4897339;29;20056;-88
2022/05/25 05:50:55;;;;;;;1.88;1.25;;;;;;;17.06;60.95;101019.03;4911312;29;20451;-89
2022/05/25 05:53:26;;;;;;;4.82;1.30;;;;;;;17.05;61.33;101005.97;4916897;29;20048;-88
2022/05/25 05:55:55;;;;;;;2.33;1.10;;;;;;;17.06;61.28;101012.94;4916523;29;20059;-87
2022/05/25 05:58:26;;;;;;;2.72;1.20;;;;;;;17.06;61.31;101018.16;4917072;29;20056;-88
2022/05/25 06:00:54;;;;;;;2.33;1.27;;;;;;;17.05;62.33;101019.91;4916611;29;20048;-88
2022/05/25 06:03:23;;;;;;;1.80;1.20;;;;;;;17.04;63.19;101027.72;4916456;29;20052;-88
2022/05/25 06:05:51;;;;;;;2.30;1.25;;;;;;;17.01;63.00;101018.13;4915163;29;20498;-88
2022/05/25 06:08:23;;;;;;;1.92;1.20;;;;;;;16.98;61.61;101023.34;4916707;29;20113;-88
2022/05/25 06:10:52;;;;;;;2.25;1.00;;;;;;;16.96;62.71;101015.47;4916426;29;20055;-88
2022/05/25 06:13:20;;;;;;;1.83;1.13;;;;;;;16.95;63.46;101021.59;4916339;29;20293;-88
2022/05/25 06:21:23;;;;;;;1.20;0.88;;;;;;;16.92;62.88;101033.75;4911834;29;20055;-87
2022/05/25 06:23:52;;;;;;;2.15;1.35;;;;;;;16.91;62.99;101025.03;4902744;29;20053;-88
2022/05/25 06:26:23;;;;;;;1.85;0.95;;;;;;;16.90;64.34;101025.00;4899568;28;20052;-88
2022/05/25 06:28:53;;;;;;;2.42;1.10;;;;;;;16.85;64.67;101017.13;4898497;29;20116;-88
2022/05/25 06:31:24;;;;;;;2.47;0.90;;;;;;;16.75;65.72;100991.78;4897378;29;20104;-88
2022/05/25 06:33:52;;;;;;;1.98;1.02;;;;;;;16.84;65.66;101004.06;4896579;29;20509;-87
2022/05/25 06:36:22;;;;;;;3.28;1.13;;;;;;;16.81;66.74;100999.66;4896748;29;20049;-89
2022/05/25 06:38:52;;;;;;;2.90;0.90;;;;;;;16.81;65.92;100994.44;4897133;29;20112;-88
2022/05/25 06:41:20;;;;;;;2.15;1.02;;;;;;;16.81;65.24;100991.84;4896415;29;20057;-88
2022/05/25 06:43:49;;;;;;;1.60;1.02;;;;;;;16.76;65.94;100983.94;4895566;29;20120;-88
2022/05/25 06:46:19;;;;;;;3.03;1.00;;;;;;;16.83;66.01;100992.72;4895868;29;20044;-88
2022/05/25 06:48:50;;;;;;;2.00;1.02;;;;;;;16.83;64.90;100997.94;4896668;29;20064;-88
2022/05/25 06:51:21;;;;;;;2.83;1.05;;;;;;;16.84;64.82;101004.94;4913044;29;20103;-87
2022/05/25 06:53:50;;;;;;;1.83;1.00;;;;;;;16.83;64.58;101002.31;4915005;29;20111;-87
2022/05/25 06:56:20;;;;;;;3.20;1.00;;;;;;;16.82;64.50;101000.56;4915518;29;20131;-88
2022/05/25 06:58:49;;;;;;;1.25;0.90;;;;;;;16.81;64.39;101004.91;4915634;29;20048;-88
2022/05/25 07:01:18;;;;;;;3.50;1.00;;;;;;;16.80;64.39;101003.16;4915104;29;20065;-88
2022/05/25 07:03:47;;;;;;;3.53;1.25;;;;;;;16.80;64.75;101008.38;4915009;29;20049;-88
2022/05/25 07:06:19;;;;;;;2.35;1.08;;;;;;;16.81;65.01;101015.34;4915323;29;20503;-88
2022/05/25 07:08:47;;;;;;;2.50;0.95;;;;;;;16.82;64.25;101017.13;4915645;29;20139;-88
2022/05/25 07:11:16;;;;;;;2.20;1.23;;;;;;;16.84;65.07;101019.75;4915297;29;20157;-88
2022/05/25 07:13:45;;;;;;;2.42;1.27;;;;;;;16.84;64.29;101015.41;4914625;29;20491;-89
2022/05/25 07:16:15;;;;;;;3.17;1.38;;;;;;;16.84;64.26;101025.84;4916262;29;20085;-88
2022/05/25 07:18:44;;;;;;;4.00;1.00;;;;;;;16.81;64.10;101030.16;4915561;29;20107;-88
2022/05/25 07:21:16;;;;;;;3.15;1.20;;;;;;;16.79;63.76;101016.16;4912960;29;20048;-89
2022/05/25 07:23:48;;;;;;;2.15;1.20;;;;;;;16.79;64.22;101017.09;4906510;29;20083;-90
2022/05/25 07:26:18;;;;;;;3.95;1.27;;;;;;;16.78;65.92;101015.31;4898774;28;20139;-89
2022/05/25 07:28:47;;;;;;;1.70;1.00;;;;;;;16.76;67.13;101027.47;4898097;29;20121;-91
2022/05/25 07:31:21;;;;;;;2.95;1.20;;;;;;;16.70;67.19;101022.22;4895849;29;20067;-89
2022/05/25 07:33:55;;;;;;;2.85;1.15;;;;;;;16.66;68.84;101016.09;4895633;29;20558;-88
2022/05/25 07:36:26;;;;;;;3.15;1.27;;;;;;;16.62;70.18;101002.97;4896546;29;20053;-90
2022/05/25 07:38:59;;;;;;;4.15;1.20;;;;;;;16.58;71.28;101006.41;4896218;29;20052;-91
2022/05/25 07:41:30;;;;;;;2.88;1.27;;;;;;;16.50;69.89;101008.97;4896423;29;20053;-90
2022/05/25 07:44:00;;;;;;;1.92;0.95;;;;;;;16.44;70.29;101007.16;4896891;29;20056;-91
2022/05/25 07:46:30;;;;;;;2.13;1.42;;;;;;;16.38;71.68;101011.44;4898028;29;20045;-89
2022/05/25 07:48:59;;;;;;;1.95;1.08;;;;;;;16.30;73.11;101000.94;4895654;29;20491;-89
2022/05/25 07:51:28;;;;;;;1.83;1.25;;;;;;;16.24;73.69;101004.38;4913089;29;20060;-90
2022/05/25 07:54:00;;;;;;;3.30;1.15;;;;;;;16.20;73.63;101002.59;4914408;29;20111;-89
2022/05/25 07:56:31;;;;;;;1.40;1.23;;;;;;;16.20;72.76;101004.34;4915256;29;20126;-90
2022/05/25 07:59:00;;;;;;;2.25;1.70;;;;;;;16.19;70.08;101003.44;4915184;29;20052;-89
2022/05/25 08:07:05;;;;;;;3.17;1.40;;;;;;;16.10;68.76;100987.66;4914421;29;20298;-88
2022/05/25 08:09:36;;;;;;;1.85;1.17;;;;;;;16.08;67.23;100994.59;4913955;29;20099;-87
2022/05/25 08:12:07;;;;;;;4.03;0.85;;;;;;;16.03;63.58;100978.91;4914039;29;20095;-88
2022/05/25 08:14:35;;;;;;;1.50;0.77;;;;;;;15.99;62.36;100977.16;4914311;29;20052;-85
2022/05/25 08:17:04;;;;;;;1.73;0.73;;;;;;;15.96;59.72;100977.09;4916442;29;20111;-88
2022/05/25 08:19:32;;;;;;;3.10;0.65;;;;;;;15.93;60.15;100974.44;4914789;29;20055;-89
2022/05/25 08:22:01;;;;;;;1.17;0.47;;;;;;;15.95;60.21;100977.97;4909459;29;20103;-87
2022/05/25 08:24:32;;;;;;;1.60;0.50;;;;;;;15.96;59.97;100971.88;4899662;28;20052;-87
2022/05/25 08:27:02;;;;;;;2.10;0.52;;;;;;;15.97;60.97;100976.25;4894150;29;20076;-88
2022/05/25 08:29:31;;;;;;;0.90;0.50;;;;;;;15.97;61.24;100978.00;4894889;29;20052;-88
2022/05/25 08:31:59;;;;;;;1.63;0.77;;;;;;;15.99;60.59;100984.97;4895025;29;20128;-87
2022/05/25 08:34:29;;;;;;;2.45;0.60;;;;;;;16.02;58.33;100979.78;4894705;29;20084;-87
2022/05/25 08:36:57;;;;;;;1.98;0.50;;;;;;;16.05;57.97;100990.25;4895254;29;20112;-86
2022/05/25 08:39:26;;;;;;;0.65;0.45;;;;;;;16.05;57.29;100989.38;4895005;29;20044;-86
2022/05/25 08:41:57;;;;;;;1.83;0.50;;;;;;;16.01;57.17;100991.09;4894576;29;20092;-86
2022/05/25 08:44:28;;;;;;;3.35;0.57;;;;;;;15.97;57.56;100988.44;4895183;29;20135;-89
2022/05/25 08:46:59;;;;;;;0.60;0.40;;;;;;;15.93;57.51;100987.50;4895053;29;20547;-87
2022/05/25 08:49:31;;;;;;;0.88;0.50;;;;;;;15.95;57.90;100988.41;4897179;29;20128;-86
2022/05/25 08:52:04;;;;;;;0.52;0.40;;;;;;;15.99;58.58;100995.41;4913262;29;20479;-87
2022/05/25 08:54:37;;;;;;;0.93;0.50;;;;;;;15.98;58.52;100988.41;4913686;29;20084;-87
2022/05/25 08:57:09;;;;;;;0.73;0.45;;;;;;;15.96;59.08;100984.91;4913500;29;20048;-87
2022/05/25 08:59:43;;;;;;;2.92;0.50;;;;;;;15.94;58.69;100985.75;4914158;29;20072;-88
2022/05/25 09:02:19;;;;;;;0.98;0.32;;;;;;;15.94;58.72;100986.63;4912959;29;20143;-87
2022/05/25 09:04:53;;;;;;;1.33;0.52;;;;;;;15.91;58.78;100984.00;4913943;29;20111;-88
2022/05/25 09:07:34;;;;;;;1.23;0.50;;;;;;;15.89;58.94;100981.34;4913689;29;20132;-88
2022/05/25 09:10:03;;;;;;;3.10;0.65;;;;;;;15.86;60.03;100983.06;4913576;29;20475;-88
2022/05/25 09:12:36;;;;;;;0.85;0.40;;;;;;;15.81;59.31;100985.63;4916440;29;20044;-86
2022/05/25 09:15:10;;;;;;;0.85;0.40;;;;;;;15.77;59.45;100989.06;4913795;29;20112;-86
2022/05/25 09:17:43;;;;;;;0.98;0.43;;;;;;;15.76;58.96;100987.31;4914053;29;20140;-86
2022/05/25 09:20:16;;;;;;;2.15;0.45;;;;;;;15.78;58.86;100987.31;4911428;29;20139;-87
2022/05/25 09:22:45;;;;;;;1.70;0.50;;;;;;;15.80;58.20;100988.22;4895742;29;20578;-87
2022/05/25 09:25:16;;;;;;;1.85;0.47;;;;;;;15.82;58.15;100983.88;4896659;28;20431;-86
2022/05/25 09:27:48;;;;;;;2.78;0.70;;;;;;;15.82;57.85;100982.16;4894778;29;20108;-86
2022/05/25 09:30:18;;;;;;;3.03;0.73;;;;;;;15.83;58.67;100983.91;4894037;29;20465;-84
2022/05/25 09:32:52;;;;;;;3.85;0.60;;;;;;;15.81;58.28;100974.31;4893722;29;20380;-88
2022/05/25 09:35:27;;;;;;;1.23;0.50;;;;;;;15.74;58.53;100981.22;4894566;29;20151;-87
2022/05/25 09:37:59;;;;;;;1.75;0.65;;;;;;;15.70;58.10;100982.88;4893994;29;20080;-87
2022/05/25 09:40:35;;;;;;;;;;;;;;;15.68;58.56;100974.13;4896419;29;20049;-85
2022/05/25 09:43:06;;;;;;;2.15;0.40;;;;;;;15.61;59.16;100977.53;4897130;29;19975;-88
2022/05/25 09:45:43;;;;;;;1.33;0.38;;;;;;;15.59;58.20;100978.38;4897748;29;20066;-87
2022/05/25 09:48:18;;;;;;;1.05;0.60;;;;;;;15.56;59.39;100987.03;4897699;29;20077;-88
2022/05/25 09:50:51;;;;;;;0.57;0.52;;;;;;;15.55;60.68;100980.03;4909711;29;20155;-88
2022/05/25 09:53:21;;;;;;;0.70;0.40;;;;;;;15.52;61.12;100989.59;4916253;29;20728;-85
2022/05/25 09:55:54;;;;;;;3.10;0.40;;;;;;;15.47;61.12;100989.53;4916121;29;20051;-86
2022/05/25 09:58:31;;;;;;;1.48;0.60;;;;;;;15.46;62.02;100990.34;4916614;29;20060;-88
2022/05/25 10:01:06;;;;;;;0.75;0.40;;;;;;;15.46;61.91;100987.75;4915465;29;20052;-88
2022/05/25 10:03:40;;;;;;;0.45;0.45;;;;;;;15.43;62.47;100985.97;4916092;29;20104;-88
2022/05/25 10:06:23;;;;;;;2.20;0.60;;;;;;;15.43;62.86;100995.53;4916858;29;20095;-88
2022/05/25 10:09:10;;;;;;;0.38;0.30;;;;;;;15.46;63.05;100998.19;4918541;29;20127;-88
2022/05/25 10:11:44;;;;;;;0.60;0.40;;;;;;;15.47;62.86;100997.34;4916508;29;20055;-87
2022/05/25 10:14:27;;;;;;;1.55;0.40;;;;;;;15.47;63.50;101000.81;4916225;29;20040;-85
2022/05/25 10:16:59;;;;;;;2.03;0.60;;;;;;;15.47;63.88;100998.22;4916275;29;20052;-86
2022/05/25 10:19:28;;;;;;;0.88;0.30;;;;;;;15.37;64.29;100983.31;4915976;29;20463;-91
2022/05/25 10:21:58;;;;;;;1.13;0.40;;;;;;;15.41;64.58;100999.84;4905665;29;20052;-86
2022/05/25 10:24:31;;;;;;;1.27;0.50;;;;;;;15.37;65.22;101001.56;4913309;29;20082;-90
2022/05/25 10:27:02;;;;;;;1.17;0.70;;;;;;;15.36;65.84;101007.63;4917580;28;20059;-89
2022/05/25 10:38:26;;;;;;;1.67;0.60;;;;;;;15.26;67.22;100997.94;4916498;29;20091;-89
2022/05/25 10:40:55;;;;;;;3.45;0.60;;;;;;;15.25;66.89;101002.25;4916469;29;20092;-89
2022/05/25 10:43:28;;;;;;;0.82;0.43;;;;;;;15.26;66.31;101006.63;4915085;29;20052;-88
2022/05/25 10:45:59;;;;;;;1.60;0.65;;;;;;;15.26;66.36;101011.84;4916132;29;20068;-87
2022/05/25 10:48:43;;;;;;;1.73;0.83;;;;;;;15.27;66.87;101007.50;4915886;29;20139;-88
2022/05/25 10:51:15;;;;;;;1.42;0.60;;;;;;;15.27;67.92;101013.56;4899591;29;20080;-88
2022/05/25 10:54:44;;;;;;;3.87;0.60;;;;;;;15.25;67.60;101015.28;4893924;29;20125;-89
2022/05/25 10:56:54;;;;;;;4.18;1.00;;;;;;;15.22;67.97;101015.25;4898442;29;20427;-89
2022/05/25 10:59:30;;;;;;;1.60;0.82;;;;;;;15.19;67.46;101007.38;4915992;29;20460;-88
2022/05/25 11:02:15;;;;;;;1.67;0.90;;;;;;;15.22;68.13;101014.38;4907682;29;20135;-89
2022/05/25 11:05:12;;;;;;;1.88;0.80;;;;;;;15.20;67.39;101016.06;4892888;29;20135;-88
2022/05/25 11:07:42;;;;;;;2.40;0.70;;;;;;;15.18;69.32;101016.03;4899457;29;20083;-90
2022/05/25 11:10:33;;;;;;;3.90;1.08;;;;;;;15.15;69.38;101008.19;4907049;29;20569;-89
2022/05/25 11:13:14;;;;;;;1.42;0.70;;;;;;;15.11;72.16;101006.38;4909345;29;20037;-87
2022/05/25 11:15:55;;;;;;;1.13;0.55;;;;;;;15.08;71.36;101007.22;4888258;29;20177;-87
2022/05/25 11:18:40;;;;;;;1.42;0.70;;;;;;;15.03;69.55;100989.78;4898952;29;20083;-88
2022/05/25 11:21:25;;;;;;;2.85;0.63;;;;;;;15.02;70.38;100993.22;4899074;29;20091;-88
2022/05/25 11:24:16;;;;;;;1.02;0.45;;;;;;;15.02;70.42;100991.47;4884588;29;20140;-89
2022/05/25 11:26:59;;;;;;;0.93;0.50;;;;;;;15.03;71.29;100988.03;4915191;28;20056;-87
2022/05/25 11:29:35;;;;;;;;;;;;;;;15.03;70.85;100990.66;4898215;29;20131;-89
2022/05/25 11:32:13;;;;;;;1.13;0.50;;;;;;;15.03;71.89;100992.38;4898332;29;19927;-89
2022/05/25 11:35:05;;;;;;;2.40;0.57;;;;;;;15.04;72.93;100995.00;4914932;29;20100;-88
2022/05/25 11:37:49;;;;;;;0.70;0.50;;;;;;;15.08;73.12;100999.41;4915061;29;20048;-88
2022/05/25 11:40:27;;;;;;;2.08;0.60;;;;;;;15.12;73.12;101002.03;4898834;29;20049;-88
2022/05/25 11:43:33;;;;;;;1.40;0.60;;;;;;;15.12;73.22;101005.56;4895405;29;20053;-88
2022/05/25 11:46:09;;;;;;;1.65;0.60;;;;;;;15.12;72.79;100997.75;4895694;29;20103;-87
2022/05/25 11:49:00;;;;;;;0.50;0.35;;;;;;;15.14;72.55;101001.25;4895853;29;20555;-88
2022/05/25 11:51:39;;;;;;;0.77;0.43;;;;;;;15.11;74.62;101000.31;4914766;29;20151;-88
2022/05/25 11:54:29;;;;;;;1.00;0.52;;;;;;;15.05;75.25;100995.91;4914121;29;20115;-87
2022/05/25 11:57:06;;;;;;;1.80;0.60;;;;;;;15.03;75.88;100998.47;4916954;29;20055;-89
2022/05/25 12:00:05;;;;;;;1.40;0.77;;;;;;;15.02;77.27;100995.81;4925643;29;20086;-91
2022/05/25 12:03:03;;;;;;;2.92;0.60;;;;;;;14.97;79.15;100998.38;4932914;29;20134;-93
2022/05/25 12:05:43;;;;;;;1.85;0.50;;;;;;;14.93;78.66;100999.16;4928377;29;20059;-93
2022/05/25 12:08:40;;;;;;;1.48;0.73;;;;;;;14.95;79.10;101004.41;4931694;29;20048;-93
2022/05/25 12:11:19;;;;;;;1.08;0.57;;;;;;;14.94;79.20;101002.66;4918065;29;20048;-91
2022/05/25 12:13:52;;;;;;;1.25;0.52;;;;;;;14.90;80.18;101003.47;4914566;29;20051;-89
2022/05/25 12:16:24;;;;;;;0.73;0.50;;;;;;;14.87;80.86;101004.31;4913779;29;20506;-89
2022/05/25 12:19:08;;;;;;;1.42;0.50;;;;;;;14.85;80.81;101013.81;4914228;29;20563;-89